createdAt,value
2022-10-13T00:01:12.128Z,8.91
2022-10-13T00:04:15.601Z,8.92
2022-10-13T00:07:18.491Z,8.82
2022-10-13T00:10:24.771Z,8.86
2022-10-13T00:13:27.880Z,8.80
2022-10-13T00:16:32.432Z,8.78
2022-10-13T00:19:35.037Z,8.67
2022-10-13T00:22:38.254Z,8.61
2022-10-13T00:25:43.208Z,8.64
2022-10-13T00:28:51.296Z,8.52
2022-10-13T00:31:55.056Z,8.60
2022-10-13T00:34:57.953Z,8.30
2022-10-13T00:38:00.575Z,8.34
2022-10-13T00:41:05.991Z,8.31
2022-10-13T00:44:46.103Z,8.46
2022-10-13T00:47:56.028Z,8.50
2022-10-13T00:50:58.890Z,8.49
2022-10-13T00:54:05.892Z,8.48
2022-10-13T00:57:10.720Z,8.44
2022-10-13T01:00:14.059Z,8.48
2022-10-13T01:03:18.548Z,8.45
2022-10-13T01:06:23.785Z,8.40
2022-10-13T01:09:26.810Z,8.57
2022-10-13T01:12:52.660Z,8.35
2022-10-13T01:15:58.252Z,8.30
2022-10-13T01:19:01.038Z,8.23
2022-10-13T01:22:37.048Z,8.18
2022-10-13T01:26:18.438Z,8.20
2022-10-13T01:29:28.861Z,8.30
2022-10-13T01:32:51.603Z,8.32
2022-10-13T01:36:17.564Z,8.30
2022-10-13T01:39:27.711Z,8.27
2022-10-13T01:42:53.923Z,8.23
2022-10-13T01:46:03.821Z,8.25
2022-10-13T01:49:12.551Z,8.24
2022-10-13T01:52:18.357Z,8.11
2022-10-13T01:55:21.166Z,7.95
2022-10-13T01:58:27.210Z,7.99
2022-10-13T02:01:55.156Z,8.02
2022-10-13T02:05:36.333Z,7.89
2022-10-13T02:08:51.172Z,7.77
2022-10-13T02:12:09.175Z,7.73
2022-10-13T02:15:19.185Z,7.77
2022-10-13T02:18:27.678Z,7.74
2022-10-13T02:21:30.828Z,7.79
2022-10-13T02:24:37.748Z,7.85
2022-10-13T02:27:40.746Z,7.94
2022-10-13T02:30:45.417Z,7.88
2022-10-13T02:33:48.004Z,8.05
2022-10-13T02:36:50.875Z,8.06
2022-10-13T02:39:53.462Z,8.00
2022-10-13T02:42:56.389Z,7.77
2022-10-13T02:45:59.127Z,7.80
2022-10-13T02:49:02.056Z,7.72
2022-10-13T02:52:06.088Z,7.63
2022-10-13T02:55:09.631Z,7.56
2022-10-13T02:58:13.570Z,7.56
2022-10-13T03:01:16.523Z,7.52
2022-10-13T03:04:19.282Z,7.75
2022-10-13T03:07:22.299Z,7.83
2022-10-13T03:10:25.038Z,7.91
2022-10-13T03:13:28.512Z,8.06
2022-10-13T03:16:34.128Z,8.19
2022-10-13T03:19:37.117Z,8.19
2022-10-13T03:22:39.608Z,8.19
2022-10-13T03:25:42.804Z,8.24
2022-10-13T03:28:50.399Z,8.24
2022-10-13T03:31:53.441Z,8.25
2022-10-13T03:34:56.021Z,8.20
2022-10-13T03:37:58.934Z,8.14
2022-10-13T03:41:15.186Z,8.08
2022-10-13T03:44:19.934Z,8.09
2022-10-13T03:47:22.455Z,8.03
2022-10-13T03:50:25.668Z,7.98
2022-10-13T03:53:28.911Z,7.89
2022-10-13T03:56:32.021Z,7.79
2022-10-13T03:59:36.983Z,7.58
2022-10-13T04:02:40.073Z,7.73
2022-10-13T04:05:43.776Z,7.73
2022-10-13T04:08:46.663Z,7.55
2022-10-13T04:11:52.711Z,7.40
2022-10-13T04:14:55.359Z,7.31
2022-10-13T04:17:58.235Z,7.37
2022-10-13T04:21:01.348Z,7.40
2022-10-13T04:24:05.708Z,7.31
2022-10-13T04:27:08.291Z,7.32
2022-10-13T04:30:13.602Z,7.26
2022-10-13T04:33:16.468Z,7.34
2022-10-13T04:36:19.716Z,7.38
2022-10-13T04:39:23.412Z,7.35
2022-10-13T04:42:26.902Z,7.33
2022-10-13T04:45:29.804Z,7.46
2022-10-13T04:48:32.663Z,7.44
2022-10-13T04:51:35.351Z,7.44
2022-10-13T04:54:38.319Z,7.51
2022-10-13T04:57:40.977Z,7.50
2022-10-13T05:00:47.018Z,7.35
2022-10-13T05:04:00.837Z,7.22
2022-10-13T05:07:17.559Z,7.26
2022-10-13T05:10:21.249Z,7.32
2022-10-13T05:13:25.240Z,7.39
2022-10-13T05:16:28.006Z,7.46
2022-10-13T05:19:30.987Z,7.34
2022-10-13T05:22:33.620Z,7.44
2022-10-13T05:25:37.732Z,7.47
2022-10-13T05:28:41.179Z,7.56
2022-10-13T05:31:44.440Z,7.54
2022-10-13T05:34:50.159Z,7.31
2022-10-13T05:37:53.185Z,7.39
2022-10-13T05:40:55.712Z,7.28
2022-10-13T05:44:01.637Z,7.41
2022-10-13T05:47:07.512Z,7.54
2022-10-13T05:50:10.761Z,7.71
2022-10-13T05:53:15.709Z,7.64
2022-10-13T05:56:23.759Z,7.88
2022-10-13T05:59:29.694Z,8.18
2022-10-13T06:02:37.831Z,8.38
2022-10-13T06:05:43.233Z,8.47
2022-10-13T06:08:47.483Z,8.53
2022-10-13T06:11:50.432Z,8.64
2022-10-13T06:14:53.002Z,8.72
2022-10-13T06:17:55.906Z,8.97
2022-10-13T06:20:58.421Z,9.09
2022-10-13T06:24:01.399Z,9.21
2022-10-13T06:27:04.789Z,9.35
2022-10-13T06:30:08.544Z,9.51
2022-10-13T06:33:11.551Z,9.66
2022-10-13T06:36:14.538Z,9.78
2022-10-13T06:39:17.771Z,9.81
2022-10-13T06:42:21.219Z,10.02
2022-10-13T06:45:27.744Z,10.12
2022-10-13T06:48:30.839Z,10.34
2022-10-13T06:51:35.337Z,10.43
2022-10-13T06:54:38.211Z,10.48
2022-10-13T06:57:40.891Z,10.66
2022-10-13T07:00:55.866Z,10.66
2022-10-13T07:04:00.163Z,10.78
2022-10-13T07:07:07.851Z,10.99
2022-10-13T07:10:10.459Z,11.00
2022-10-13T07:13:13.525Z,11.05
2022-10-13T07:16:17.008Z,11.15
2022-10-13T07:19:24.135Z,11.32
2022-10-13T07:22:27.187Z,11.43
2022-10-13T07:25:30.755Z,11.55
2022-10-13T07:28:33.565Z,11.61
2022-10-13T07:31:36.861Z,11.81
2022-10-13T07:34:39.496Z,12.05
2022-10-13T07:37:42.384Z,12.15
2022-10-13T10:27:15.652Z,17.35
2022-10-13T10:30:20.916Z,17.45
2022-10-13T10:33:36.977Z,17.50
2022-10-13T10:37:17.957Z,17.55
2022-10-13T10:40:39.816Z,17.43
2022-10-13T10:43:55.339Z,17.55
2022-10-13T10:47:05.050Z,17.64
2022-10-13T10:50:13.691Z,17.73
2022-10-13T10:53:30.777Z,17.76
2022-10-13T10:56:51.348Z,17.78
2022-10-13T11:00:10.312Z,17.77
2022-10-13T11:03:42.571Z,17.84
2022-10-13T11:06:45.097Z,17.74
2022-10-13T11:09:47.888Z,17.78
2022-10-13T11:12:53.609Z,17.73
2022-10-13T11:15:56.552Z,17.84
2022-10-13T11:19:22.137Z,17.89
2022-10-13T11:22:31.267Z,18.02
2022-10-13T11:25:48.826Z,18.10
2022-10-13T11:28:51.836Z,18.09
2022-10-13T11:31:55.274Z,18.16
2022-10-13T11:35:04.649Z,18.13
2022-10-13T11:38:23.637Z,18.12
2022-10-13T11:41:33.695Z,18.13
2022-10-13T11:45:00.273Z,18.12
2022-10-13T11:48:33.792Z,18.17
2022-10-13T11:52:07.586Z,18.23
2022-10-13T11:55:32.291Z,18.28
2022-10-13T11:58:42.276Z,18.32
2022-10-13T12:01:45.373Z,18.31
2022-10-13T12:05:22.683Z,18.33
2022-10-13T12:08:27.408Z,18.48
2022-10-13T12:11:37.792Z,18.59
2022-10-13T12:14:47.662Z,18.48
2022-10-13T12:17:53.564Z,18.48
2022-10-13T12:21:03.629Z,18.48
2022-10-13T12:24:09.556Z,18.30
2022-10-13T12:27:22.211Z,18.39
2022-10-13T12:30:36.381Z,18.48
2022-10-13T12:33:38.972Z,18.66
2022-10-13T12:36:45.473Z,18.78
2022-10-13T12:39:49.032Z,18.81
2022-10-13T12:42:53.623Z,18.90
2022-10-13T12:45:56.338Z,18.75
2022-10-13T12:49:12.339Z,18.77
2022-10-13T12:52:20.422Z,18.73
2022-10-13T12:55:23.915Z,18.84
2022-10-13T12:58:33.300Z,18.74
2022-10-13T13:01:36.270Z,18.93
2022-10-13T13:04:42.358Z,18.88
2022-10-13T13:07:52.782Z,18.89
2022-10-13T13:11:00.375Z,19.03
2022-10-13T13:14:36.978Z,19.22
2022-10-13T13:17:57.187Z,19.29
2022-10-13T13:21:02.087Z,19.28
2022-10-13T13:24:16.158Z,19.29
2022-10-13T13:27:36.408Z,19.19
2022-10-13T13:30:39.488Z,18.97
2022-10-13T13:33:42.681Z,18.95
2022-10-13T13:36:45.318Z,18.79
2022-10-13T13:39:48.333Z,18.68
2022-10-13T13:42:51.360Z,18.64
2022-10-13T13:45:54.274Z,18.61
2022-10-13T13:48:57.016Z,18.63
2022-10-13T13:51:59.862Z,18.56
2022-10-13T13:55:02.529Z,18.54
2022-10-13T13:58:05.680Z,18.51
2022-10-13T14:01:08.507Z,18.49
2022-10-13T14:04:11.355Z,18.54
2022-10-13T14:07:14.041Z,18.49
2022-10-13T14:10:17.039Z,18.45
2022-10-13T14:13:20.591Z,18.38
2022-10-13T14:16:25.651Z,18.31
2022-10-13T14:19:28.882Z,18.19
2022-10-13T14:22:31.829Z,18.08
2022-10-13T14:25:34.432Z,17.99
2022-10-13T14:28:37.358Z,17.88
2022-10-13T14:31:40.086Z,17.84
2022-10-13T14:34:42.937Z,17.76
2022-10-13T14:37:45.513Z,17.68
2022-10-13T14:40:48.404Z,17.61
2022-10-13T14:43:54.749Z,17.58
2022-10-13T14:46:57.702Z,17.52
2022-10-13T14:50:02.024Z,17.49
2022-10-13T14:53:05.044Z,17.28
2022-10-13T14:56:26.420Z,17.16
2022-10-13T14:59:30.572Z,17.11
2022-10-13T15:02:33.175Z,16.96
2022-10-13T15:05:36.330Z,16.90
2022-10-13T15:08:38.982Z,16.74
2022-10-13T15:11:42.198Z,16.61
2022-10-13T15:14:44.810Z,16.39
2022-10-13T15:17:47.714Z,16.35
2022-10-13T15:20:52.462Z,16.25
2022-10-13T15:23:56.662Z,16.06
2022-10-13T15:26:59.397Z,15.96
2022-10-13T15:30:07.659Z,15.87
2022-10-13T15:33:10.680Z,15.76
2022-10-13T15:36:14.009Z,15.64
2022-10-13T15:39:16.652Z,15.49
2022-10-13T15:42:19.765Z,15.35
2022-10-13T15:45:22.500Z,15.16
2022-10-13T15:48:25.687Z,15.17
2022-10-13T15:51:28.412Z,15.08
2022-10-13T15:54:31.487Z,15.00
2022-10-13T15:57:34.187Z,14.90
2022-10-13T16:00:37.124Z,14.81
2022-10-13T16:03:42.176Z,14.72
2022-10-13T16:06:44.924Z,14.58
2022-10-13T16:09:47.784Z,14.47
2022-10-13T16:12:50.432Z,14.34
2022-10-13T16:16:00.435Z,14.11
2022-10-13T16:19:03.456Z,14.13
2022-10-13T16:22:06.593Z,14.10
2022-10-13T16:25:09.694Z,13.97
2022-10-13T16:28:12.659Z,13.81
2022-10-13T16:31:17.004Z,13.67
2022-10-13T16:34:20.240Z,13.58
2022-10-13T16:37:23.170Z,13.58
2022-10-13T16:40:27.538Z,13.53
2022-10-13T16:43:31.055Z,13.42
2022-10-13T16:46:34.270Z,13.44
2022-10-13T16:49:37.319Z,13.37
2022-10-13T16:52:41.656Z,13.27
2022-10-13T16:55:44.457Z,13.18
2022-10-13T16:59:00.296Z,12.96
2022-10-13T17:02:03.157Z,13.03
2022-10-13T17:05:06.231Z,12.92
2022-10-13T17:08:09.265Z,12.81
2022-10-13T17:11:20.763Z,12.69
2022-10-13T17:14:23.387Z,12.65
2022-10-13T17:17:27.263Z,12.62
2022-10-13T17:20:29.963Z,12.59
2022-10-13T17:23:32.921Z,12.53
2022-10-13T17:26:35.669Z,12.41
2022-10-13T17:29:38.637Z,12.45
2022-10-13T17:32:41.275Z,12.36
2022-10-13T17:35:44.169Z,12.31
2022-10-13T17:38:48.322Z,12.27
2022-10-13T17:41:51.191Z,12.25
2022-10-13T17:44:53.723Z,12.14
2022-10-13T17:47:58.819Z,12.07
2022-10-13T17:51:06.099Z,12.07
2022-10-13T17:54:15.593Z,12.09
2022-10-13T17:57:19.494Z,12.05
2022-10-13T18:00:22.681Z,12.01
2022-10-13T18:03:25.701Z,12.00
2022-10-13T18:06:35.177Z,11.98
2022-10-13T18:09:41.082Z,11.83
2022-10-13T18:12:44.246Z,11.81
2022-10-13T18:15:47.091Z,11.81
2022-10-13T18:18:51.875Z,11.81
2022-10-13T18:21:54.800Z,11.77
2022-10-13T18:24:57.687Z,11.72
2022-10-13T18:28:00.655Z,11.65
2022-10-13T18:31:08.533Z,11.68
2022-10-13T18:34:14.590Z,11.65
2022-10-13T18:37:17.362Z,11.58
2022-10-13T18:40:20.506Z,11.45
2022-10-13T18:43:23.549Z,11.28
2022-10-13T18:46:26.742Z,11.25
2022-10-13T18:49:33.172Z,11.23
2022-10-13T18:52:36.106Z,11.10
2022-10-13T18:55:43.012Z,11.09
2022-10-13T18:58:46.022Z,11.08
2022-10-13T19:01:48.844Z,11.10
2022-10-13T19:04:51.663Z,11.17
2022-10-13T19:07:54.242Z,11.28
2022-10-13T19:10:57.336Z,11.31
2022-10-13T19:14:00.877Z,11.43
2022-10-13T19:17:03.889Z,11.33
2022-10-13T19:20:10.601Z,11.35
2022-10-13T19:23:15.842Z,11.26
2022-10-13T19:26:24.789Z,11.32
2022-10-13T19:29:28.062Z,11.35
2022-10-13T19:32:30.685Z,11.45
2022-10-13T19:35:59.922Z,11.49
2022-10-13T19:39:06.852Z,11.51
2022-10-13T19:42:09.793Z,11.62
2022-10-13T19:45:12.513Z,11.68
2022-10-13T19:48:16.766Z,11.74
2022-10-13T19:51:19.415Z,11.77
2022-10-13T19:54:23.311Z,11.80
2022-10-13T19:57:25.928Z,11.84
2022-10-13T20:00:31.053Z,11.83
2022-10-13T20:03:34.146Z,11.72
2022-10-13T20:06:37.047Z,11.69
2022-10-13T20:09:40.621Z,11.82
2022-10-13T20:12:43.263Z,11.85
2022-10-13T20:15:46.252Z,11.83
2022-10-13T20:18:54.436Z,11.82
2022-10-13T20:21:58.395Z,11.84
2022-10-13T20:25:01.092Z,11.75
2022-10-13T20:28:04.654Z,11.68
2022-10-13T20:31:07.597Z,11.55
2022-10-13T20:34:11.449Z,11.57
2022-10-13T20:37:14.195Z,11.54
2022-10-13T20:40:17.422Z,11.59
2022-10-13T20:43:24.845Z,11.61
2022-10-13T20:46:28.593Z,11.50
2022-10-13T20:49:31.226Z,11.54
2022-10-13T20:52:34.840Z,11.40
2022-10-13T20:55:41.703Z,11.37
2022-10-13T20:58:45.120Z,11.30
2022-10-13T21:01:47.789Z,11.29
2022-10-13T21:04:50.600Z,11.23
2022-10-13T21:07:56.663Z,11.17
2022-10-13T21:11:07.674Z,11.11
2022-10-13T21:14:10.496Z,11.10
2022-10-13T21:17:13.433Z,11.10
2022-10-13T21:20:16.101Z,11.10
2022-10-13T21:23:19.159Z,11.10
2022-10-13T21:26:23.375Z,11.22
2022-10-13T21:29:26.291Z,11.20
2022-10-13T21:32:30.282Z,11.14
2022-10-13T21:35:36.439Z,11.12
2022-10-13T21:38:39.671Z,11.02
2022-10-13T21:41:42.534Z,10.75
2022-10-13T21:44:45.172Z,10.70
2022-10-13T21:47:48.391Z,10.68
2022-10-13T21:50:50.984Z,10.64
2022-10-13T21:53:56.483Z,10.70
2022-10-13T21:56:59.271Z,10.72
2022-10-13T22:00:02.224Z,10.72
2022-10-13T22:03:15.151Z,10.74
2022-10-13T22:06:19.611Z,10.75
2022-10-13T22:09:22.802Z,10.72
2022-10-13T22:12:28.819Z,10.75
2022-10-13T22:15:34.186Z,10.74
2022-10-13T22:18:37.528Z,10.63
2022-10-13T22:21:45.977Z,10.70
2022-10-13T22:24:49.040Z,10.73
2022-10-13T22:27:51.627Z,10.71
2022-10-13T22:30:54.682Z,10.68
2022-10-13T22:33:57.261Z,10.66
2022-10-13T22:37:00.125Z,10.61
2022-10-13T22:40:03.787Z,10.48
2022-10-13T22:43:07.219Z,10.29
2022-10-13T22:46:10.175Z,10.40
2022-10-13T22:49:13.526Z,10.31
2022-10-13T22:52:16.126Z,10.29
2022-10-13T22:55:20.108Z,10.26
2022-10-13T22:58:22.688Z,10.23
2022-10-13T23:01:28.151Z,10.21
2022-10-13T23:04:30.682Z,10.23
2022-10-13T23:07:33.575Z,10.27
2022-10-13T23:10:36.546Z,10.20
2022-10-13T23:13:39.691Z,10.32
2022-10-13T23:16:42.201Z,10.29
2022-10-13T23:19:45.026Z,10.31
2022-10-13T23:22:47.682Z,10.31
2022-10-13T23:25:50.640Z,10.23
2022-10-13T23:28:54.926Z,10.26
2022-10-13T23:31:57.828Z,10.26
2022-10-13T23:35:00.343Z,10.24
2022-10-13T23:38:07.711Z,10.21
2022-10-13T23:41:12.863Z,9.93
2022-10-13T23:44:17.632Z,9.94
2022-10-13T23:47:21.656Z,9.90
2022-10-13T23:50:25.638Z,9.90
2022-10-13T23:53:28.201Z,9.90
2022-10-13T23:56:31.099Z,9.84
2022-10-13T23:59:33.704Z,9.79
